Parker, ID (83438)

5:56 AM MST on January 18, 2017 (GMT -0700)
Parker | | Change Station

Elev 4986 ft 43.95 °N, 111.76 °W | Updated 13 minutes ago

Partly Cloudy
Partly Cloudy
-1.7 °F
Feels Like -2 °F
N
0.0
Wind Variable Wind from NNE

Today
High -- | Low -- °F
--% Chance of Precip.
Yesterday
High -- | Low -- °F
Precip. -- in
Pressure 30.38 in
Visibility 10.0 miles
Clouds Clear
Windchill -2 °F
Dew Point -4 °F
Humidity 90%
Rainfall 0.00 in
Snow Depth Not available.
7:56 AM 5:19 PM
Waning Gibbous, 63% visible
METAR KRXE 181253Z AUTO 00000KT 10SM CLR M19/M21 A3011 RMK AO2 SLP285 I1000 T11941211
Pressure 30.38 in
Visibility 10.0 miles
Clouds Clear
Windchill -2 °F
Dew Point -4 °F
Humidity 90%
Rainfall 0.00 in
Snow Depth Not available.
7:56 AM 5:19 PM
Waning Gibbous, 63% visible
METAR KRXE 181253Z AUTO 00000KT 10SM CLR M19/M21 A3011 RMK AO2 SLP285 I1000 T11941211

Get Your Daily Forecast Email!

Thanks for signing up!

Be on the lookout for a verification email in your inbox.

You'll start receiving the daily forecast at 8 AM.

×

10-Day Weather Forecast

Almanac

Astronomy

Jan. 18, 2017 Rise Set
Actual Time
Civil Twilight
Nautical Twilight
Astronomical Twilight
Moon
Length of Visible Light
Length of Day
Tomorrow will be .
, % of the Moon is Illuminated

Today's Extremes

State Highs State Lows

Community

WunderPhotos

Upload Photos

1,962,540 photos uploaded!

WunderBlog® & News

Nearby

Air Quality

  Air Quality AQ Index Pollutant
Not available.

Snow Depth

Station Depth Elevation

Earthquake Activity

City Distance Mag. Time & Date
Minimum magnitude displayed is 2.5.

Coastal Water Temperatures

Place Temperature

Stations

Nearby Weather Stations

Station Location Temp. Windchill Dew Point Humidity Wind Precip. Elev Updated Type
                   

Watches & Warnings

There are currently no watches in effect.